Time;durP1;ratioP1;P1;durP2;ratioP2;P2;SDS_P1;SDS_P2;PMS_P1;PMS_P2;Temp;Humidity;BMP_temperature;BMP_pressure;BME280_temperature;BME280_humidity;BME280_pressure;Samples;Min_cycle;Max_cycle;Signal;HPM_P1;HPM_P2
2022/04/10 00:00:03;;;;;;;470.85;240.10;;;;;;;4.93;62.12;100677.25;688478;28;22235;-70
2022/04/10 00:00:33;;;;;;;482.13;296.48;;;;;;;4.93;62.21;100685.28;684374;28;135976;-70
2022/04/10 00:00:55;;;;;;;480.70;292.80;;;;;;;4.94;62.50;100689.66;687888;28;23474;-70
2022/04/10 00:01:16;;;;;;;478.90;281.77;;;;;;;4.91;62.43;100684.59;687573;28;46405;-70
2022/04/10 00:01:38;;;;;;;469.70;239.60;;;;;;;4.93;62.15;100688.78;687559;28;22272;-70
2022/04/10 00:01:59;;;;;;;476.00;273.10;;;;;;;4.93;62.20;100686.09;688331;28;46585;-71
2022/04/10 00:02:21;;;;;;;482.00;291.25;;;;;;;4.95;62.26;100697.50;688215;28;22514;-70
2022/04/10 00:02:42;;;;;;;468.27;238.68;;;;;;;4.97;62.06;100690.19;687515;28;46303;-70
2022/04/10 00:03:04;;;;;;;470.85;242.75;;;;;;;4.96;62.31;100691.19;687750;28;23455;-70
2022/04/10 00:03:25;;;;;;;479.65;282.75;;;;;;;4.95;62.10;100688.66;687610;28;46536;-70
2022/04/10 00:03:47;;;;;;;482.13;298.33;;;;;;;4.92;62.41;100686.25;688504;28;23497;-70
2022/04/10 00:04:08;;;;;;;480.70;294.65;;;;;;;4.87;62.43;100694.69;687483;28;44388;-70
2022/04/10 00:04:29;;;;;;;480.92;294.15;;;;;;;4.86;62.40;100693.88;688454;28;23398;-70
2022/04/10 00:04:52;;;;;;;481.00;290.48;;;;;;;4.86;62.47;100687.69;688696;28;23443;-70
2022/04/10 00:05:14;;;;;;;481.45;292.73;;;;;;;4.82;62.42;100683.59;686068;28;92327;-70
2022/04/10 00:05:35;;;;;;;481.15;289.33;;;;;;;4.84;62.61;100686.94;687486;28;44360;-70
2022/04/10 00:05:56;;;;;;;481.98;295.48;;;;;;;4.84;62.65;100687.81;688232;28;22200;-70
2022/04/10 00:06:18;;;;;;;482.45;296.70;;;;;;;4.83;62.56;100694.16;688356;28;21513;-70
2022/04/10 00:06:39;;;;;;;482.90;298.15;;;;;;;4.83;62.64;100687.97;686797;28;44408;-70
2022/04/10 00:07:00;;;;;;;481.05;292.50;;;;;;;4.84;62.80;100689.63;688184;28;22396;-70
2022/04/10 00:07:21;;;;;;;477.88;273.88;;;;;;;4.83;62.68;100694.16;687899;28;21536;-70
2022/04/10 00:07:43;;;;;;;482.90;294.38;;;;;;;4.82;62.89;100687.09;687399;28;23503;-70
2022/04/10 00:08:05;;;;;;;482.17;299.60;;;;;;;4.82;62.83;100689.78;687679;28;45142;-70
2022/04/10 00:08:26;;;;;;;479.83;288.13;;;;;;;4.81;62.82;100688.09;687776;28;44347;-70
2022/04/10 00:08:47;;;;;;;478.63;290.05;;;;;;;4.85;62.76;100689.50;688785;28;22406;-70
2022/04/10 00:09:08;;;;;;;481.83;299.15;;;;;;;4.84;62.73;100686.94;688374;28;21513;-70
2022/04/10 00:09:30;;;;;;;475.70;272.25;;;;;;;4.84;62.75;100694.97;687955;28;21305;-70
2022/04/10 00:09:51;;;;;;;480.90;292.17;;;;;;;4.88;62.58;100689.22;687521;28;46269;-71
2022/04/10 00:10:12;;;;;;;475.60;268.83;;;;;;;4.87;62.61;100692.03;686911;28;22386;-70
2022/04/10 00:10:33;;;;;;;477.25;270.08;;;;;;;4.85;62.73;100691.34;687987;28;23411;-70
2022/04/10 00:10:55;;;;;;;483.83;303.55;;;;;;;4.83;62.80;100688.78;687338;28;46379;-70
2022/04/10 00:11:16;;;;;;;484.70;302.70;;;;;;;4.83;62.91;100687.97;687430;28;46256;-70
2022/04/10 00:11:37;;;;;;;481.52;291.77;;;;;;;4.83;62.65;100694.16;687532;28;23456;-70
2022/04/10 00:11:58;;;;;;;480.50;289.25;;;;;;;4.83;62.85;100693.31;688651;28;22383;-70
2022/04/10 00:12:21;;;;;;;481.90;293.80;;;;;;;4.83;62.79;100693.31;688360;28;24501;-70
2022/04/10 00:12:42;;;;;;;480.33;292.10;;;;;;;4.80;62.81;100690.91;687580;28;45391;-71
2022/04/10 00:13:03;;;;;;;483.50;304.23;;;;;;;4.82;62.69;100694.28;688346;28;22370;-71
2022/04/10 00:13:24;;;;;;;484.35;303.38;;;;;;;4.80;62.71;100696.28;687298;28;42688;-70
2022/04/10 00:13:46;;;;;;;482.23;295.85;;;;;;;4.79;62.79;100690.06;688434;28;23937;-70
2022/04/10 00:14:07;;;;;;;480.33;290.00;;;;;;;4.80;62.66;100691.75;687590;28;45296;-70
2022/04/10 00:14:28;;;;;;;481.83;296.50;;;;;;;4.76;62.71;100692.16;687870;28;23433;-70
2022/04/10 00:14:49;;;;;;;482.73;300.10;;;;;;;4.77;62.91;100693.88;688321;28;23496;-70
2022/04/10 00:15:12;;;;;;;483.63;299.98;;;;;;;4.77;62.83;100699.22;687859;28;22410;-71
2022/04/10 00:15:33;;;;;;;484.92;302.92;;;;;;;4.76;62.85;100698.34;687871;28;46373;-71
2022/04/10 00:15:54;;;;;;;481.40;295.08;;;;;;;4.75;62.96;100698.50;688694;28;22485;-71
2022/04/10 00:16:16;;;;;;;482.77;296.55;;;;;;;4.75;62.94;100682.44;688160;28;23451;-71
2022/04/10 00:16:37;;;;;;;482.58;296.00;;;;;;;4.77;63.04;100691.19;686107;28;46385;-71
2022/04/10 00:16:58;;;;;;;482.58;296.70;;;;;;;4.75;63.02;100688.66;688477;28;22290;-71
2022/04/10 00:17:19;;;;;;;480.80;289.55;;;;;;;4.77;63.00;100685.84;687290;28;44583;-71
2022/04/10 00:17:42;;;;;;;480.40;286.08;;;;;;;4.81;63.06;100692.59;688004;28;22270;-70
2022/04/10 00:18:03;;;;;;;481.63;293.88;;;;;;;4.81;63.23;100688.09;688028;28;45069;-69
2022/04/10 00:18:24;;;;;;;482.42;297.17;;;;;;;4.78;63.14;100688.38;689191;28;1472;-70
2022/04/10 00:18:45;;;;;;;482.17;297.15;;;;;;;4.85;62.99;100691.34;688415;28;20876;-70
2022/04/10 00:19:07;;;;;;;482.42;298.15;;;;;;;4.83;62.89;100693.31;688354;28;21533;-70
2022/04/10 00:19:28;;;;;;;483.92;304.77;;;;;;;4.83;62.92;100696.81;687094;28;44379;-70
2022/04/10 00:19:49;;;;;;;485.67;302.00;;;;;;;4.76;62.82;100676.13;687447;28;21516;-70
2022/04/10 00:20:12;;;;;;;483.95;298.10;;;;;;;4.82;63.00;100691.59;688325;28;22245;-70
2022/04/10 00:20:34;;;;;;;483.35;298.65;;;;;;;4.80;62.81;100685.56;686686;28;69359;-70
2022/04/10 00:20:55;;;;;;;482.38;298.58;;;;;;;4.82;62.98;100695.13;687580;28;47392;-70
2022/04/10 00:21:17;;;;;;;480.38;290.58;;;;;;;4.82;62.82;100692.44;688184;28;22496;-71
2022/04/10 00:21:38;;;;;;;482.15;294.58;;;;;;;4.81;62.97;100688.09;687773;28;23382;-70
2022/04/10 00:22:00;;;;;;;481.60;298.52;;;;;;;4.83;62.91;100691.47;687572;28;46363;-71
2022/04/10 00:22:21;;;;;;;479.27;284.27;;;;;;;4.82;62.78;100687.09;687614;28;45338;-71
2022/04/10 00:22:43;;;;;;;480.20;286.83;;;;;;;4.82;62.97;100688.94;687606;28;23460;-70
2022/04/10 00:23:04;;;;;;;483.20;298.33;;;;;;;4.84;63.03;100692.31;687089;28;44431;-70
2022/04/10 00:23:26;;;;;;;484.67;299.85;;;;;;;4.86;62.90;100690.34;687922;28;22179;-70
2022/04/10 00:23:48;;;;;;;482.45;299.05;;;;;;;4.84;62.75;100695.84;686626;28;68470;-70
2022/04/10 00:24:09;;;;;;;480.95;292.58;;;;;;;4.83;62.87;100683.44;688228;28;23526;-70
2022/04/10 00:24:30;;;;;;;482.42;296.48;;;;;;;4.90;62.71;100693.59;688494;28;23473;-70
2022/04/10 00:24:52;;;;;;;481.77;296.50;;;;;;;4.87;62.83;100698.25;688174;28;22023;-70
2022/04/10 00:25:15;;;;;;;482.98;298.40;;;;;;;4.90;62.51;100696.25;687451;28;46469;-71
2022/04/10 00:25:36;;;;;;;481.00;290.55;;;;;;;4.88;62.42;100688.38;686236;28;68458;-71
2022/04/10 00:25:57;;;;;;;477.73;276.73;;;;;;;4.86;62.60;100690.34;688190;28;22269;-71
2022/04/10 00:26:19;;;;;;;481.27;290.63;;;;;;;4.93;62.54;100698.66;688347;28;22400;-71
2022/04/10 00:26:40;;;;;;;484.17;301.48;;;;;;;4.94;62.47;100698.50;686692;28;45339;-71
2022/04/10 00:27:01;;;;;;;482.27;293.48;;;;;;;4.93;62.52;100698.66;688612;28;17250;-71
2022/04/10 00:27:23;;;;;;;480.10;290.23;;;;;;;4.92;62.58;100694.28;688315;28;20982;-71
2022/04/10 00:27:44;;;;;;;481.00;291.08;;;;;;;4.89;62.61;100690.06;687198;28;22318;-71
2022/04/10 00:28:08;;;;;;;479.98;285.48;;;;;;;4.88;62.52;100681.19;688439;28;970;-71
2022/04/10 00:28:29;;;;;;;481.08;290.40;;;;;;;4.95;62.36;100691.31;682591;28;92069;-71
2022/04/10 00:28:51;;;;;;;475.75;268.95;;;;;;;4.92;62.46;100696.97;683005;28;21339;-71
2022/04/10 00:29:12;;;;;;;479.60;279.40;;;;;;;4.96;62.44;100691.19;682152;28;46469;-71
2022/04/10 00:29:34;;;;;;;484.75;299.70;;;;;;;4.95;62.35;100694.84;682009;28;23475;-70
2022/04/10 00:29:55;;;;;;;483.20;292.75;;;;;;;4.95;62.18;100699.34;684134;28;923;-70
2022/04/10 00:30:17;;;;;;;479.85;289.10;;;;;;;4.87;62.59;100694.69;682974;28;21464;-71
2022/04/10 00:30:38;;;;;;;481.02;291.35;;;;;;;4.88;62.38;100689.22;682239;28;22631;-71
2022/04/10 00:31:00;;;;;;;479.52;283.52;;;;;;;4.88;62.38;100699.06;682781;28;23521;-70
2022/04/10 00:31:21;;;;;;;480.85;284.50;;;;;;;4.85;62.48;100692.16;677308;29;42714;-71
2022/04/10 00:31:42;;;;;;;483.23;295.48;;;;;;;4.85;62.79;100694.00;678984;28;46921;-71
2022/04/10 00:32:04;;;;;;;481.73;294.25;;;;;;;4.85;62.63;100700.19;680347;28;21431;-71
2022/04/10 00:32:26;;;;;;;480.73;290.85;;;;;;;4.83;62.61;100694.16;682301;28;46233;-70
2022/04/10 00:32:48;;;;;;;480.88;290.90;;;;;;;4.83;62.71;100696.81;684443;28;22282;-70
2022/04/10 00:33:09;;;;;;;483.02;295.15;;;;;;;4.87;62.92;100702.72;685173;28;44547;-71
2022/04/10 00:33:30;;;;;;;479.33;283.90;;;;;;;4.83;62.72;100682.59;687538;28;23379;-71
2022/04/10 00:33:52;;;;;;;480.08;287.63;;;;;;;4.87;62.60;100692.88;687354;28;45217;-70
2022/04/10 00:34:14;;;;;;;479.50;281.20;;;;;;;4.86;62.60;100699.22;687081;28;46319;-70
2022/04/10 00:34:35;;;;;;;471.85;249.45;;;;;;;4.86;62.74;100693.03;687464;28;45330;-70
2022/04/10 00:34:56;;;;;;;479.08;288.00;;;;;;;4.85;62.82;100694.84;688595;28;22387;-70
2022/04/10 00:35:19;;;;;;;478.55;284.80;;;;;;;4.84;62.75;100690.50;689465;28;1532;-71
2022/04/10 00:35:40;;;;;;;479.17;288.75;;;;;;;4.85;62.77;100694.00;686837;28;44413;-70
2022/04/10 00:36:03;;;;;;;479.08;291.80;;;;;;;4.81;62.76;100687.22;687625;28;44196;-70
2022/04/10 00:36:25;;;;;;;479.48;290.08;;;;;;;4.87;62.75;100690.22;683355;28;69838;-70
2022/04/10 00:36:47;;;;;;;480.52;294.55;;;;;;;4.88;62.81;100691.06;680713;28;45244;-70
2022/04/10 00:37:08;;;;;;;480.73;295.95;;;;;;;4.88;62.74;100691.88;680074;29;21535;-70
2022/04/10 00:37:30;;;;;;;482.35;298.25;;;;;;;4.87;62.67;100684.88;680658;28;25867;-70
2022/04/10 00:37:52;;;;;;;480.55;290.75;;;;;;;4.85;62.82;100685.97;681277;28;46408;-70
2022/04/10 00:38:13;;;;;;;480.30;285.35;;;;;;;4.88;62.85;100693.72;683507;28;22377;-70
2022/04/10 00:38:35;;;;;;;481.23;288.27;;;;;;;4.88;62.76;100691.06;685098;28;22294;-70
2022/04/10 00:38:56;;;;;;;480.90;292.65;;;;;;;4.92;62.79;100694.28;684703;28;46365;-70
2022/04/10 00:39:17;;;;;;;479.55;285.73;;;;;;;4.89;62.75;100687.41;684458;28;46373;-70
2022/04/10 00:39:38;;;;;;;475.38;255.30;;;;;;;4.88;62.72;100693.72;685458;28;22552;-70
2022/04/10 00:40:00;;;;;;;474.30;251.45;;;;;;;4.86;62.86;100690.34;686112;28;22415;-71
2022/04/10 00:40:22;;;;;;;476.83;272.73;;;;;;;4.88;62.97;100693.72;682712;28;44392;-71
2022/04/10 00:40:43;;;;;;;477.90;275.60;;;;;;;4.89;62.90;100687.41;684124;28;22406;-71
2022/04/10 00:41:04;;;;;;;478.45;282.02;;;;;;;4.88;62.90;100689.22;686050;28;23427;-71
2022/04/10 00:41:26;;;;;;;479.08;281.40;;;;;;;4.89;62.72;100692.75;687069;28;23694;-70
2022/04/10 00:41:49;;;;;;;481.63;291.13;;;;;;;4.89;63.00;100690.06;685167;28;69536;-71
2022/04/10 00:42:10;;;;;;;479.02;281.35;;;;;;;4.87;62.80;100692.88;686873;28;69516;-70
2022/04/10 00:42:31;;;;;;;470.95;246.02;;;;;;;4.87;62.96;100692.03;688821;28;21504;-70
2022/04/10 00:42:53;;;;;;;477.77;280.40;;;;;;;4.81;62.94;100685.44;686126;28;46269;-70
2022/04/10 00:43:15;;;;;;;482.80;293.30;;;;;;;4.82;63.09;100691.59;681968;28;22517;-70
2022/04/10 00:43:38;;;;;;;479.42;285.67;;;;;;;4.86;62.82;100691.19;681421;28;69472;-70
2022/04/10 00:44:04;;;;;;;474.75;264.40;;;;;;;4.85;62.89;100688.66;681422;28;68310;-71
2022/04/10 00:44:27;;;;;;;471.55;245.93;;;;;;;4.87;62.94;100692.03;683429;28;60172;-71
2022/04/10 00:44:48;;;;;;;481.60;293.33;;;;;;;4.88;62.69;100685.69;687380;28;45473;-70
2022/04/10 00:45:09;;;;;;;480.13;286.75;;;;;;;4.89;62.90;100684.72;688567;28;23535;-70
2022/04/10 00:45:31;;;;;;;479.67;285.60;;;;;;;4.92;62.72;100691.59;688402;28;23488;-70
2022/04/10 00:45:55;;;;;;;478.40;282.52;;;;;;;4.92;62.89;100695.16;687837;28;33281;-70
2022/04/10 00:46:16;;;;;;;480.05;286.10;;;;;;;4.95;62.86;100696.69;686687;28;63446;-70
2022/04/10 00:46:37;;;;;;;483.00;294.07;;;;;;;4.96;62.58;100691.19;687758;28;23596;-71
2022/04/10 00:46:58;;;;;;;479.73;280.38;;;;;;;4.93;62.82;100694.13;686657;28;45216;-71
2022/04/10 00:47:20;;;;;;;471.45;243.95;;;;;;;4.91;62.77;100689.94;688365;28;24414;-70
2022/04/10 00:47:51;;;;;;;478.63;280.63;;;;;;;4.88;62.70;100691.88;682891;28;96864;-70
2022/04/10 00:48:13;;;;;;;480.38;285.02;;;;;;;4.86;62.98;100693.03;684314;28;44019;-71
2022/04/10 00:48:36;;;;;;;481.95;296.98;;;;;;;4.84;63.03;100682.47;685478;28;22389;-70
2022/04/10 00:48:57;;;;;;;479.48;288.55;;;;;;;4.88;62.86;100699.06;686400;28;69297;-70
2022/04/10 00:49:19;;;;;;;479.23;287.30;;;;;;;4.86;62.95;100690.34;688184;28;23473;-70
2022/04/10 00:49:41;;;;;;;480.67;286.80;;;;;;;4.84;62.89;100687.81;688177;28;46274;-70
2022/04/10 00:50:04;;;;;;;476.63;272.25;;;;;;;4.87;62.99;100694.69;690065;28;44516;-70
2022/04/10 00:50:27;;;;;;;473.17;262.90;;;;;;;4.86;63.10;100687.69;686351;28;69774;-70
2022/04/10 00:51:43;;;;;;;479.95;287.20;;;;;;;4.85;63.14;100689.50;686143;28;58626;-70
2022/04/10 00:52:07;;;;;;;478.25;282.17;;;;;;;4.89;62.96;100695.44;681387;28;112841;-70
2022/04/10 00:52:29;;;;;;;480.20;285.67;;;;;;;4.87;62.79;100687.53;685685;28;90342;-70
2022/04/10 00:52:50;;;;;;;478.48;277.00;;;;;;;4.86;63.01;100688.50;684334;28;46427;-70
2022/04/10 00:53:12;;;;;;;480.20;284.05;;;;;;;4.83;62.97;100685.28;682031;28;22476;-70
2022/04/10 00:53:34;;;;;;;483.13;296.70;;;;;;;4.85;63.02;100692.16;679856;28;45253;-70
2022/04/10 00:53:55;;;;;;;481.85;297.55;;;;;;;4.85;62.91;100692.16;680895;28;46397;-70
2022/04/10 00:54:18;;;;;;;481.60;293.88;;;;;;;4.87;62.98;100698.25;683707;28;22390;-70
2022/04/10 00:54:40;;;;;;;481.85;294.98;;;;;;;4.86;62.95;100690.34;682617;28;92123;-70
2022/04/10 00:55:02;;;;;;;482.08;292.65;;;;;;;4.87;63.09;100697.38;686197;28;22906;-70
2022/04/10 00:55:23;;;;;;;481.30;290.83;;;;;;;4.89;62.77;100700.78;685899;28;46593;-70
2022/04/10 00:55:44;;;;;;;471.00;250.13;;;;;;;4.88;62.90;100696.41;688547;28;22521;-70
2022/04/10 00:56:05;;;;;;;479.63;285.73;;;;;;;4.89;62.93;100706.13;689908;28;44234;-70
2022/04/10 00:56:28;;;;;;;482.52;296.42;;;;;;;4.89;62.98;100695.44;686946;28;22322;-70
2022/04/10 00:56:49;;;;;;;483.70;299.95;;;;;;;4.87;62.76;100692.88;686432;28;45166;-70
2022/04/10 00:57:11;;;;;;;480.40;294.33;;;;;;;4.88;63.05;100694.56;685521;28;21516;-70
2022/04/10 00:57:33;;;;;;;480.85;291.67;;;;;;;4.85;62.97;100694.84;684494;28;47320;-70
2022/04/10 00:57:55;;;;;;;480.85;291.83;;;;;;;4.87;62.94;100697.38;684371;28;46299;-71
2022/04/10 00:58:16;;;;;;;482.65;293.02;;;;;;;4.86;62.97;100698.38;684840;28;46325;-71
2022/04/10 00:58:37;;;;;;;481.00;288.02;;;;;;;4.85;62.73;100704.72;684097;28;22451;-71
2022/04/10 00:58:59;;;;;;;481.33;290.67;;;;;;;4.82;62.98;100697.81;685686;28;22229;-71
2022/04/10 00:59:21;;;;;;;482.42;294.05;;;;;;;4.82;63.05;100700.47;681772;28;46305;-71
2022/04/10 00:59:42;;;;;;;484.42;299.88;;;;;;;4.82;63.09;100699.63;678083;29;67482;-70
2022/04/10 01:00:05;;;;;;;482.52;295.00;;;;;;;4.80;63.11;100699.78;681160;28;21538;-71
2022/04/10 01:00:28;;;;;;;480.83;290.95;;;;;;;4.79;63.01;100691.91;682230;28;14820;-70
2022/04/10 01:00:50;;;;;;;478.98;282.08;;;;;;;4.76;63.16;100698.34;683729;28;23357;-71
2022/04/10 01:01:11;;;;;;;479.77;284.33;;;;;;;4.80;63.15;100704.28;679962;28;46291;-71
2022/04/10 01:01:33;;;;;;;480.75;292.23;;;;;;;4.80;63.14;100704.28;683964;28;21738;-70
2022/04/10 01:01:54;;;;;;;483.48;296.45;;;;;;;4.76;63.42;100698.34;682533;28;66309;-70
2022/04/10 01:02:16;;;;;;;481.70;291.88;;;;;;;4.78;63.27;100704.44;683308;28;46454;-70
2022/04/10 01:02:38;;;;;;;481.35;290.42;;;;;;;4.80;63.24;100701.63;685695;28;45368;-70
2022/04/10 01:02:59;;;;;;;481.70;296.30;;;;;;;4.79;63.16;100700.75;688051;28;957;-70
2022/04/10 01:03:21;;;;;;;482.52;296.08;;;;;;;4.80;63.18;100704.28;685937;28;70101;-70
2022/04/10 01:03:42;;;;;;;482.85;298.40;;;;;;;4.79;63.29;100706.09;685000;28;22340;-70
2022/04/10 01:04:06;;;;;;;479.92;294.92;;;;;;;4.79;63.47;100703.44;686127;28;24756;-70
2022/04/10 01:04:27;;;;;;;478.50;285.13;;;;;;;4.79;63.46;100705.28;686696;28;67477;-70
2022/04/10 01:04:48;;;;;;;478.33;287.88;;;;;;;4.79;63.41;100695.41;687648;28;22401;-70
2022/04/10 01:05:10;;;;;;;478.08;283.83;;;;;;;4.78;63.27;100688.38;688088;28;23735;-71
2022/04/10 01:05:33;;;;;;;479.98;288.25;;;;;;;4.81;63.26;100706.84;688098;28;22405;-70
2022/04/10 01:05:55;;;;;;;481.77;296.15;;;;;;;4.79;63.40;100691.91;686380;28;92288;-70
2022/04/10 01:06:16;;;;;;;480.50;290.08;;;;;;;4.81;63.09;100690.78;685281;28;23241;-70
2022/04/10 01:06:37;;;;;;;481.38;291.08;;;;;;;4.82;63.27;100697.81;684898;28;22616;-70
2022/04/10 01:07:00;;;;;;;478.83;284.42;;;;;;;4.83;63.21;100699.50;686025;28;21555;-70
2022/04/10 01:07:24;;;;;;;479.58;287.25;;;;;;;4.85;63.15;100694.84;684900;28;36271;-70
2022/04/10 01:07:45;;;;;;;480.23;291.23;;;;;;;4.83;63.27;100696.81;681624;28;46428;-70
2022/04/10 01:08:08;;;;;;;478.27;281.83;;;;;;;4.86;63.16;100706.41;682540;28;22367;-70
2022/04/10 01:08:29;;;;;;;480.70;286.23;;;;;;;4.85;62.93;100694.00;680042;28;46553;-70
2022/04/10 01:08:50;;;;;;;481.73;290.85;;;;;;;4.87;63.15;100702.72;681394;28;45276;-71
2022/04/10 01:09:11;;;;;;;481.67;291.50;;;;;;;4.84;63.12;100693.19;681188;28;21394;-70
2022/04/10 01:09:34;;;;;;;482.05;287.88;;;;;;;4.88;62.89;100707.09;678897;29;23489;-70
2022/04/10 01:09:55;;;;;;;484.63;295.75;;;;;;;4.88;62.93;100689.22;678837;29;46435;-70
2022/04/10 01:10:16;;;;;;;480.08;288.05;;;;;;;4.87;63.01;100698.25;680665;28;46543;-70
2022/04/10 01:10:38;;;;;;;479.15;281.02;;;;;;;4.88;62.98;100702.59;683489;28;21544;-70
2022/04/10 01:10:59;;;;;;;479.80;289.02;;;;;;;4.83;62.96;100690.63;684659;28;23396;-70
2022/04/10 01:11:21;;;;;;;481.92;291.90;;;;;;;4.83;62.90;100693.31;682805;28;45203;-70
2022/04/10 01:11:43;;;;;;;481.77;291.23;;;;;;;4.85;63.10;100704.72;683951;28;69277;-70
2022/04/10 01:12:05;;;;;;;481.13;288.77;;;;;;;4.83;63.05;100696.81;685829;28;21518;-70
2022/04/10 01:12:28;;;;;;;482.50;296.17;;;;;;;4.87;62.93;100692.03;681941;28;69498;-70
2022/04/10 01:12:54;;;;;;;479.17;283.27;;;;;;;4.86;63.05;100701.06;679832;28;137840;-70
2022/04/10 01:13:18;;;;;;;481.30;293.70;;;;;;;4.83;63.03;100693.31;679475;28;114824;-70
2022/04/10 01:13:39;;;;;;;482.05;293.90;;;;;;;4.80;63.09;100699.78;679294;28;45218;-70
2022/04/10 01:14:01;;;;;;;476.90;275.60;;;;;;;4.81;63.05;100704.16;681275;28;12880;-70
2022/04/10 01:14:25;;;;;;;482.67;292.70;;;;;;;4.80;63.19;100696.28;680002;28;92287;-70
2022/04/10 01:14:46;;;;;;;482.00;294.90;;;;;;;4.82;62.97;100696.97;683464;28;46521;-70
2022/04/10 01:15:10;;;;;;;481.45;290.35;;;;;;;4.82;62.94;100688.94;681293;28;92124;-70
2022/04/10 01:15:37;;;;;;;479.98;285.15;;;;;;;4.81;63.13;100697.94;680971;28;113830;-70
2022/04/10 01:15:59;;;;;;;479.23;284.65;;;;;;;4.79;63.10;100690.06;681826;28;69769;-70
2022/04/10 01:16:21;;;;;;;482.15;293.50;;;;;;;4.80;63.31;100694.44;680799;28;45248;-70
2022/04/10 01:16:43;;;;;;;478.35;278.92;;;;;;;4.80;63.20;100696.28;681457;28;45890;-70
2022/04/10 01:17:06;;;;;;;477.90;280.25;;;;;;;4.78;63.24;100696.41;684782;28;22395;-70
2022/04/10 01:17:30;;;;;;;478.77;283.45;;;;;;;4.77;63.13;100704.56;680589;28;115408;-70
2022/04/10 01:17:52;;;;;;;477.42;282.15;;;;;;;4.76;63.36;100701.03;684229;28;67512;-70
2022/04/10 01:18:14;;;;;;;479.17;286.27;;;;;;;4.77;63.28;100707.25;683410;28;46333;-70
2022/04/10 01:18:36;;;;;;;479.85;287.90;;;;;;;4.75;63.34;100706.53;681588;28;46426;-70
2022/04/10 01:18:57;;;;;;;479.67;288.05;;;;;;;4.75;63.44;100698.50;682768;28;23491;-70
2022/04/10 01:19:21;;;;;;;480.85;292.02;;;;;;;4.73;63.23;100704.00;680470;28;22397;-70
2022/04/10 01:19:43;;;;;;;480.83;278.20;;;;;;;4.75;63.49;100695.81;676331;29;113043;-70
2022/04/10 01:20:09;;;;;;;478.10;275.60;;;;;;;4.74;63.32;100699.50;677321;29;92373;-70
2022/04/10 01:20:36;;;;;;;482.05;291.55;;;;;;;4.72;63.45;100706.81;678819;28;137840;-70
2022/04/10 01:21:02;;;;;;;478.02;278.73;;;;;;;4.73;63.34;100704.00;677784;28;135794;-70
2022/04/10 01:21:25;;;;;;;479.38;281.90;;;;;;;4.75;63.35;100702.03;682374;28;46261;-70
2022/04/10 01:21:50;;;;;;;478.90;280.23;;;;;;;4.73;63.38;100704.00;675821;29;114475;-70
2022/04/10 01:22:33;;;;;;;477.13;272.05;;;;;;;4.71;63.48;100703.28;680092;28;92275;-70
2022/04/10 01:22:55;;;;;;;475.75;271.58;;;;;;;4.69;63.37;100705.28;679138;28;138219;-70
2022/04/10 01:23:16;;;;;;;477.75;278.10;;;;;;;4.68;63.59;100707.09;683608;28;22406;-71
2022/04/10 01:23:37;;;;;;;476.52;272.75;;;;;;;4.67;63.40;100704.53;681819;28;22349;-70
2022/04/10 01:24:01;;;;;;;478.10;277.42;;;;;;;4.68;63.40;100701.72;683511;28;67442;-70
2022/04/10 01:24:22;;;;;;;476.85;278.40;;;;;;;4.66;63.64;100706.38;684486;28;46394;-70
2022/04/10 01:24:44;;;;;;;475.92;274.08;;;;;;;4.66;63.59;100703.72;684595;28;45212;-70
2022/04/10 01:25:09;;;;;;;477.55;278.75;;;;;;;4.67;63.61;100704.53;679135;28;115013;-70
2022/04/10 01:25:34;;;;;;;479.20;278.70;;;;;;;4.66;63.53;100701.03;682042;28;90336;-70
2022/04/10 01:25:55;;;;;;;478.40;274.38;;;;;;;4.67;63.55;100701.88;682880;28;46415;-70
2022/04/10 01:26:16;;;;;;;481.52;282.98;;;;;;;4.67;63.57;100710.75;682317;28;45260;-70
2022/04/10 01:26:39;;;;;;;480.45;286.05;;;;;;;4.69;63.68;100710.63;680242;29;23549;-70
2022/04/10 01:27:02;;;;;;;479.77;287.65;;;;;;;4.69;63.68;100711.47;678725;29;46279;-70
2022/04/10 01:27:23;;;;;;;479.13;287.17;;;;;;;4.67;63.52;100707.22;680228;28;57627;-70
2022/04/10 01:27:44;;;;;;;477.60;279.65;;;;;;;4.66;63.55;100706.38;683380;28;22278;-70
2022/04/10 01:28:10;;;;;;;478.02;280.55;;;;;;;4.65;63.61;100707.34;684436;28;45396;-70
2022/04/10 01:28:31;;;;;;;480.65;285.05;;;;;;;4.65;63.46;100704.69;681613;28;137860;-70
2022/04/10 01:28:58;;;;;;;478.10;277.55;;;;;;;4.61;63.57;100703.28;685500;28;46348;-70
2022/04/10 01:29:20;;;;;;;481.00;292.48;;;;;;;4.61;63.71;100702.47;681272;28;136283;-70
2022/04/10 01:29:41;;;;;;;481.48;288.98;;;;;;;4.58;63.71;100698.22;683148;28;22388;-70
2022/04/10 01:30:03;;;;;;;480.50;288.42;;;;;;;4.61;63.78;100702.47;682579;28;22389;-70
2022/04/10 01:30:25;;;;;;;481.83;292.00;;;;;;;4.60;63.79;100706.94;681547;29;1924;-70
2022/04/10 01:30:46;;;;;;;478.35;278.10;;;;;;;4.59;63.75;100702.59;682313;28;46194;-71
2022/04/10 01:31:07;;;;;;;473.95;263.88;;;;;;;4.60;63.65;100701.59;683975;28;23433;-70
2022/04/10 01:31:30;;;;;;;478.88;279.10;;;;;;;4.61;63.76;100697.94;685226;28;23477;-70
2022/04/10 01:31:53;;;;;;;478.23;283.17;;;;;;;4.62;63.52;100702.28;684710;28;69453;-70
2022/04/10 01:32:14;;;;;;;478.02;280.20;;;;;;;4.61;63.70;100703.28;686064;28;45308;-70
2022/04/10 01:32:35;;;;;;;479.52;290.17;;;;;;;4.63;63.75;100706.66;685306;28;23440;-70
2022/04/10 01:32:57;;;;;;;478.85;286.70;;;;;;;4.61;63.65;100714.00;683095;28;45348;-70
2022/04/10 01:33:18;;;;;;;480.08;287.30;;;;;;;4.60;63.78;100704.25;682640;28;46810;-70
2022/04/10 01:33:40;;;;;;;479.75;285.83;;;;;;;4.54;63.74;100694.13;684892;28;21515;-70
2022/04/10 01:34:03;;;;;;;480.70;288.25;;;;;;;4.61;63.90;100705.13;682577;28;46815;-70
2022/04/10 01:34:24;;;;;;;480.95;288.77;;;;;;;4.58;63.82;100706.25;684695;28;69448;-70
2022/04/10 01:34:46;;;;;;;480.58;289.08;;;;;;;4.58;63.87;100700.06;686184;28;23399;-70
2022/04/10 01:35:10;;;;;;;479.20;284.45;;;;;;;4.57;63.89;100709.06;682967;28;46398;-70
2022/04/10 01:35:33;;;;;;;479.35;282.95;;;;;;;4.56;63.82;100708.22;679614;28;93085;-70
2022/04/10 01:35:55;;;;;;;479.48;283.58;;;;;;;4.54;63.89;100703.97;678908;29;69226;-70
2022/04/10 01:36:17;;;;;;;478.70;275.13;;;;;;;4.54;64.13;100703.97;680409;28;9830;-70
2022/04/10 01:36:38;;;;;;;477.73;268.35;;;;;;;4.53;64.20;100704.97;680757;28;46264;-70
2022/04/10 01:37:02;;;;;;;478.92;275.38;;;;;;;4.51;64.19;100705.97;682511;28;70283;-70
2022/04/10 01:37:25;;;;;;;478.75;281.10;;;;;;;4.51;64.24;100705.97;682015;28;69050;-70
2022/04/10 01:37:46;;;;;;;479.42;285.85;;;;;;;4.48;64.16;100702.69;685712;28;44404;-70
2022/04/10 01:38:14;;;;;;;481.83;292.83;;;;;;;4.48;64.13;100698.22;683148;28;159261;-70
2022/04/10 01:38:41;;;;;;;481.15;288.92;;;;;;;4.52;64.19;100704.13;683738;28;138246;-70
2022/04/10 01:39:05;;;;;;;480.02;286.25;;;;;;;4.50;64.19;100698.91;685868;28;46342;-70
2022/04/10 01:39:26;;;;;;;481.20;289.63;;;;;;;4.51;64.36;100699.75;683870;28;92415;-70
2022/04/10 01:39:49;;;;;;;483.75;288.63;;;;;;;4.53;64.29;100711.19;682654;28;21561;-70
2022/04/10 01:40:11;;;;;;;481.73;291.48;;;;;;;4.55;64.10;100713.72;679866;28;70013;-70
2022/04/10 01:40:33;;;;;;;480.73;288.17;;;;;;;4.54;64.15;100698.63;677212;29;44360;-70
2022/04/10 01:40:55;;;;;;;480.58;285.83;;;;;;;4.56;64.25;100702.00;675332;29;70294;-71
2022/04/10 01:41:17;;;;;;;482.60;290.35;;;;;;;4.53;64.19;100696.94;679294;29;23268;-70